EDT,Max TemperatureF,Mean TemperatureF,Min TemperatureF,Max Dew PointF,MeanDew PointF,Min DewpointF,Max Humidity, Mean Humidity, Min Humidity, Max Sea Level PressureIn, Mean Sea Level PressureIn, Min Sea Level PressureIn, Max VisibilityMiles, Mean VisibilityMiles, Min VisibilityMiles, Max Wind SpeedMPH, Mean Wind SpeedMPH, Max Gust SpeedMPH,PrecipitationIn, CloudCover, Events, WindDirDegrees
2011-10-1,64,57,49,45,39,34,77,56,34,30.17,30.09,29.97,10,10,10,22,9,26,0.00,3,,347
2011-10-2,68,56,44,43,37,29,83,54,24,30.19,30.15,30.10,10,10,10,15,6,17,0.00,0,,345
2011-10-3,76,58,40,45,38,29,89,54,18,30.23,30.19,30.14,10,10,10,14,2,15,0.00,1,,345
2011-10-4,79,62,45,54,47,42,86,59,32,30.31,30.24,30.20,10,10,10,15,3,18,0.00,0,,18
2011-10-5,81,66,50,56,52,48,89,62,35,30.30,30.23,30.17,10,10,10,7,1,10,0.00,0,,3
2011-10-6,82,67,52,59,55,50,93,66,39,30.31,30.25,30.21,10,10,10,9,1,13,0.00,2,Fog,105
2011-10-7,80,67,54,60,55,49,93,68,42,30.40,30.32,30.27,10,10,10,9,1,16,0.00,1,Fog,119
2011-10-8,79,64,49,56,51,48,93,66,39,30.43,30.36,30.29,10,10,10,12,2,15,0.00,1,Fog,68
2011-10-9,75,65,55,56,54,51,93,70,46,30.34,30.27,30.21,10,10,9,14,4,18,0.00,6,,21
2011-10-10,77,69,61,61,56,50,84,63,41,30.19,30.10,30.03,10,10,3,15,7,21,0.15,6,Rain,36
2011-10-11,65,63,60,62,60,57,97,91,84,30.03,29.96,29.92,10,4,1,14,8,20,0.98,8,Rain,18
2011-10-12,71,66,60,61,58,32,93,80,66,29.93,29.86,29.77,10,9,6,10,4,13,0.00,7,,26
2011-10-13,70,66,61,63,60,55,93,78,63,29.79,29.69,29.61,10,8,1,17,7,23,0.31,7,Rain,202
2011-10-14,76,64,52,54,48,40,96,62,27,29.94,29.85,29.74,10,10,10,21,6,32,0.00,2,,239
2011-10-15,75,62,49,49,43,33,89,56,23,30.13,30.05,29.94,10,10,10,17,3,23,0.00,0,,268
2011-10-16,83,64,45,54,47,41,93,58,23,30.19,30.09,29.99,10,10,10,16,3,22,0.00,0,,197
2011-10-17,85,68,51,58,53,49,96,63,29,30.00,29.93,29.84,10,10,10,15,4,18,0.00,1,,203
2011-10-18,81,67,53,64,59,51,93,69,45,29.83,29.66,29.52,10,8,2,17,4,23,0.72,5,Fog-Rain-Thunderstorm,199
2011-10-19,61,54,47,61,46,40,90,81,71,29.73,29.60,29.52,10,8,2,20,9,31,0.09,8,Rain,269
2011-10-20,56,50,44,43,39,37,83,67,51,30.07,29.88,29.74,10,10,8,18,8,26,0.03,6,Rain,236
2011-10-21,64,52,39,42,39,34,93,64,34,30.17,30.13,30.08,10,10,10,13,2,16,0.00,2,,330
2011-10-22,67,52,37,45,38,32,92,62,31,30.22,30.15,30.10,10,10,10,7,1,10,0.00,1,Fog,348
2011-10-23,68,54,39,49,41,36,92,63,34,30.18,30.11,30.06,10,10,9,7,0,8,0.00,4,Fog,10
2011-10-24,75,61,46,50,47,43,93,63,33,30.20,30.15,30.10,10,10,10,9,1,13,0.00,2,Fog,257
2011-10-25,75,60,44,52,46,41,93,63,33,30.28,30.19,30.12,10,10,9,10,1,15,0.00,0,Fog,188
2011-10-26,77,62,46,50,47,43,93,63,33,30.12,30.04,29.94,10,10,10,17,4,21,0.00,3,,184
2011-10-27,73,61,49,56,51,46,93,75,57,30.03,29.94,29.86,10,10,6,18,6,22,0.04,6,Rain,296
2011-10-28,53,49,45,49,46,41,93,87,80,30.06,30.00,29.97,10,8,2,17,10,22,0.38,8,Rain,12
2011-10-29,60,49,38,40,35,28,85,58,31,30.19,30.13,30.06,10,10,10,18,7,24,T,2,,336
2011-10-30,61,47,33,39,34,28,92,61,29,30.33,30.25,30.19,10,10,6,10,1,14,0.00,2,Fog,175
2011-10-31,65,51,36,41,36,33,92,62,31,30.25,30.22,30.15,10,10,10,13,2,18,0.00,3,,236